Time;durP1;ratioP1;P1;durP2;ratioP2;P2;SDS_P1;SDS_P2;PMS_P1;PMS_P2;Temp;Humidity;BMP_temperature;BMP_pressure;BME280_temperature;BME280_humidity;BME280_pressure;Samples;Min_cycle;Max_cycle;Signal;HPM_P1;HPM_P2
2024/04/12 00:02:13;;;;;;;1.92;1.55;;;;;;;12.63;73.03;100980.66;5419017;26;20004;-66
2024/04/12 00:04:43;;;;;;;1.00;0.90;;;;;;;12.66;72.93;100979.84;5418725;26;20004;-66
2024/04/12 00:07:16;;;;;;;2.10;1.40;;;;;;;12.61;72.86;100978.91;5418527;26;20028;-66
2024/04/12 00:09:52;;;;;;;1.48;1.38;;;;;;;12.53;72.63;100976.25;5418881;26;20000;-66
2024/04/12 00:12:27;;;;;;;2.40;0.82;;;;;;;12.52;73.00;100973.69;5418421;26;20018;-66
2024/04/12 00:15:04;;;;;;;2.95;1.73;;;;;;;12.51;72.74;100971.97;5416835;26;20000;-66
2024/04/12 00:17:38;;;;;;;0.75;0.75;;;;;;;12.41;72.66;100965.00;5418557;26;20347;-66
2024/04/12 00:20:10;;;;;;;1.27;1.08;;;;;;;12.43;73.03;100963.34;5418568;26;20010;-66
2024/04/12 00:22:43;;;;;;;0.85;0.75;;;;;;;12.42;72.85;100967.59;5418587;26;20026;-66
2024/04/12 00:25:12;;;;;;;1.30;1.20;;;;;;;12.37;72.67;100960.69;5386979;26;20007;-66
2024/04/12 00:27:43;;;;;;;1.38;1.23;;;;;;;12.40;72.92;100973.53;5418293;26;20014;-67
2024/04/12 00:30:21;;;;;;;1.48;1.13;;;;;;;12.45;72.47;100971.91;5418470;26;20129;-66
2024/04/12 00:32:57;;;;;;;0.85;0.70;;;;;;;12.46;72.62;100973.59;5417806;26;20011;-67
2024/04/12 00:35:34;;;;;;;1.02;0.90;;;;;;;12.44;72.62;100981.28;5418149;26;20006;-67
2024/04/12 00:38:09;;;;;;;3.35;1.80;;;;;;;12.39;72.75;100971.81;5417927;26;20015;-67
2024/04/12 00:40:45;;;;;;;2.25;1.42;;;;;;;12.31;72.68;100968.31;5418431;26;20010;-66
2024/04/12 00:43:18;;;;;;;1.50;1.40;;;;;;;12.25;73.27;100968.22;5417934;26;20523;-66
2024/04/12 00:45:49;;;;;;;0.90;0.90;;;;;;;12.17;73.18;100965.53;5386600;26;20004;-66
2024/04/12 00:48:25;;;;;;;1.13;0.82;;;;;;;12.06;73.26;100957.75;5417903;26;20023;-66
2024/04/12 00:50:55;;;;;;;1.85;1.38;;;;;;;12.05;73.94;100968.81;5416142;26;20035;-66
2024/04/12 00:53:28;;;;;;;1.27;1.17;;;;;;;12.00;73.43;100962.75;5417631;26;20004;-66
2024/04/12 00:56:00;;;;;;;0.70;0.70;;;;;;;11.92;74.01;100955.81;5418138;26;20221;-66
2024/04/12 00:58:33;;;;;;;0.93;0.85;;;;;;;11.85;74.56;100954.03;5418151;26;20016;-66
2024/04/12 01:01:10;;;;;;;0.90;0.88;;;;;;;11.75;74.16;100950.47;5418016;26;20003;-66
2024/04/12 01:03:49;;;;;;;1.95;1.65;;;;;;;11.69;74.44;100950.34;5417603;26;20470;-66
2024/04/12 01:06:17;;;;;;;1.20;1.10;;;;;;;11.66;75.01;100950.28;5419982;26;20018;-66
2024/04/12 01:08:51;;;;;;;1.50;1.00;;;;;;;11.66;75.02;100955.38;5419265;26;20073;-66
2024/04/12 01:11:20;;;;;;;1.08;1.00;;;;;;;11.63;75.17;100951.94;5421048;26;20456;-66
2024/04/12 01:13:52;;;;;;;1.80;1.20;;;;;;;11.58;75.29;100951.88;5420911;26;19999;-66
2024/04/12 01:16:21;;;;;;;0.60;0.60;;;;;;;11.55;75.56;100949.25;5420956;26;20000;-66
2024/04/12 01:18:55;;;;;;;1.10;1.00;;;;;;;11.56;75.67;100948.44;5421343;26;20043;-66
2024/04/12 01:21:24;;;;;;;1.15;1.05;;;;;;;11.56;75.23;100952.69;5421158;26;19999;-66
2024/04/12 01:23:55;;;;;;;2.55;2.08;;;;;;;11.49;75.17;100949.19;5420894;26;19999;-67
2024/04/12 01:26:27;;;;;;;3.28;1.88;;;;;;;11.46;75.34;100951.69;5420779;26;20004;-66
2024/04/12 01:28:59;;;;;;;1.27;1.17;;;;;;;11.47;75.31;100950.00;5420782;26;20334;-66
2024/04/12 01:31:27;;;;;;;0.85;0.85;;;;;;;11.39;75.33;100948.16;5420790;26;20006;-67
2024/04/12 01:34:00;;;;;;;1.30;1.17;;;;;;;11.38;75.43;100949.00;5420681;26;20447;-66
2024/04/12 01:36:28;;;;;;;1.23;1.13;;;;;;;11.32;75.79;100948.03;5420610;26;19999;-66
2024/04/12 01:39:00;;;;;;;1.50;1.27;;;;;;;11.26;75.44;100950.47;5418881;26;20003;-66
2024/04/12 01:41:31;;;;;;;0.70;0.70;;;;;;;11.23;76.30;100950.41;5419622;26;20433;-66
2024/04/12 01:44:06;;;;;;;2.20;1.98;;;;;;;11.23;76.16;100952.97;5420972;26;20446;-66
2024/04/12 01:46:35;;;;;;;1.30;1.20;;;;;;;11.25;75.93;100946.22;5420840;26;20137;-66
2024/04/12 01:49:10;;;;;;;1.13;1.00;;;;;;;11.22;75.79;100956.38;5418774;26;20333;-66
2024/04/12 01:51:40;;;;;;;1.15;1.05;;;;;;;11.20;75.90;100948.69;5420585;26;20011;-66
2024/04/12 01:54:17;;;;;;;0.88;0.88;;;;;;;11.16;76.13;100953.69;5420475;26;20031;-67
2024/04/12 01:56:48;;;;;;;1.00;0.93;;;;;;;11.10;76.20;100961.28;5420480;26;20012;-66
2024/04/12 01:59:21;;;;;;;0.75;0.75;;;;;;;11.04;76.40;100961.16;5433238;26;20036;-66
2024/04/12 02:01:50;;;;;;;1.25;1.15;;;;;;;10.99;76.29;100967.91;5420180;26;20028;-66
2024/04/12 02:04:21;;;;;;;1.58;1.33;;;;;;;10.95;76.57;100969.53;5420272;26;19999;-66
2024/04/12 02:06:51;;;;;;;5.47;1.65;;;;;;;10.97;76.55;100959.31;5420405;26;20000;-66
2024/04/12 02:09:28;;;;;;;1.98;1.52;;;;;;;10.91;76.50;100970.31;5420204;26;20000;-66
2024/04/12 02:12:00;;;;;;;1.45;1.35;;;;;;;10.90;77.13;100972.81;5418527;26;20022;-66
2024/04/12 02:14:31;;;;;;;1.45;1.35;;;;;;;10.85;76.90;100969.31;5420190;26;20002;-66
2024/04/12 02:16:59;;;;;;;5.50;1.58;;;;;;;10.77;76.93;100972.59;5419184;26;20004;-66
2024/04/12 02:19:30;;;;;;;1.45;1.30;;;;;;;10.75;77.45;100969.16;5420121;26;20000;-66
2024/04/12 02:22:03;;;;;;;1.02;0.98;;;;;;;10.71;77.57;100975.03;5420463;26;20454;-66
2024/04/12 02:24:34;;;;;;;0.88;0.88;;;;;;;10.71;77.63;100977.59;5420399;26;20003;-66
2024/04/12 02:27:04;;;;;;;1.50;1.40;;;;;;;10.58;77.59;100960.28;5420210;26;20015;-66
2024/04/12 02:29:36;;;;;;;3.25;1.58;;;;;;;10.62;77.56;100972.31;5420346;26;20003;-66
2024/04/12 02:32:05;;;;;;;1.77;1.67;;;;;;;10.60;77.60;100979.09;5420055;26;20023;-67
2024/04/12 02:34:35;;;;;;;4.40;1.45;;;;;;;10.52;77.63;100980.59;5420144;26;20010;-66
2024/04/12 02:37:04;;;;;;;1.27;1.15;;;;;;;10.57;78.21;100978.16;5418164;26;20015;-66
2024/04/12 02:39:40;;;;;;;0.98;0.65;;;;;;;10.57;78.24;100979.00;5418045;26;20036;-66
2024/04/12 02:42:13;;;;;;;0.63;0.63;;;;;;;10.58;77.99;100974.78;5418122;26;20012;-66
2024/04/12 02:44:45;;;;;;;0.82;0.82;;;;;;;10.56;78.40;100966.19;5420174;26;20010;-66
2024/04/12 02:47:14;;;;;;;1.42;1.27;;;;;;;10.52;78.08;100964.44;5420018;26;20011;-66
2024/04/12 02:49:45;;;;;;;1.75;1.63;;;;;;;10.48;78.20;100967.75;5419551;26;20018;-66
2024/04/12 02:52:13;;;;;;;0.65;0.65;;;;;;;10.46;78.50;100966.88;5417698;26;20072;-66
2024/04/12 02:54:44;;;;;;;2.20;1.85;;;;;;;10.47;78.48;100971.13;5419888;26;20003;-66
2024/04/12 02:57:15;;;;;;;1.70;1.05;;;;;;;10.43;78.07;100980.44;5419521;26;20322;-66
2024/04/12 02:59:48;;;;;;;0.80;0.80;;;;;;;10.40;78.46;100974.38;5419781;26;20080;-66
2024/04/12 03:02:16;;;;;;;2.13;1.73;;;;;;;10.38;78.24;100971.81;5419374;26;20011;-66
2024/04/12 03:04:47;;;;;;;2.08;1.35;;;;;;;10.39;78.43;100983.72;5418197;26;20338;-66
2024/04/12 03:07:15;;;;;;;1.40;1.30;;;;;;;10.37;78.07;100975.19;5419464;26;20000;-66
2024/04/12 03:09:46;;;;;;;2.65;1.40;;;;;;;10.36;78.20;100978.56;5419258;26;20000;-66
2024/04/12 03:12:17;;;;;;;1.65;1.55;;;;;;;10.27;78.06;100973.25;5419213;26;20350;-66
2024/04/12 03:14:47;;;;;;;1.55;1.45;;;;;;;10.24;78.33;100977.44;5419675;26;20004;-66
2024/04/12 03:17:17;;;;;;;1.08;1.00;;;;;;;10.23;78.19;100981.69;5417907;26;20014;-66
2024/04/12 03:19:48;;;;;;;1.25;1.15;;;;;;;10.21;78.43;100978.25;5417365;26;20069;-66
2024/04/12 03:22:16;;;;;;;0.90;0.77;;;;;;;10.18;78.25;100980.72;5417498;26;20015;-66
2024/04/12 03:24:47;;;;;;;0.70;0.70;;;;;;;10.19;78.26;100979.91;5419457;26;20464;-66
2024/04/12 03:27:18;;;;;;;1.30;1.13;;;;;;;10.17;78.06;100975.59;5417441;26;20387;-66
2024/04/12 03:29:49;;;;;;;1.98;1.85;;;;;;;10.14;78.05;100976.41;5418657;26;19999;-66
2024/04/12 03:32:19;;;;;;;1.05;1.05;;;;;;;10.10;78.51;100980.53;5417539;26;20008;-66
2024/04/12 03:34:51;;;;;;;1.15;1.02;;;;;;;10.13;78.65;100984.00;5447327;26;19999;-66
2024/04/12 03:37:23;;;;;;;2.28;1.88;;;;;;;10.01;78.56;100990.53;5419426;26;20004;-66
2024/04/12 03:40:00;;;;;;;2.22;1.75;;;;;;;9.97;79.11;100986.19;5419141;26;20015;-66
2024/04/12 03:42:31;;;;;;;1.30;1.17;;;;;;;9.95;79.12;100989.53;5419282;26;20003;-66
2024/04/12 03:45:12;;;;;;;2.10;1.70;;;;;;;9.94;79.16;100992.91;5419279;26;20073;-66
2024/04/12 03:47:44;;;;;;;0.82;0.82;;;;;;;9.95;79.26;100999.75;5417566;26;20016;-66
2024/04/12 03:50:16;;;;;;;1.27;1.20;;;;;;;9.89;79.18;100994.47;5418685;26;20053;-66
2024/04/12 03:52:44;;;;;;;1.70;1.60;;;;;;;9.88;79.39;101002.97;5418718;26;20035;-66
2024/04/12 03:55:16;;;;;;;1.33;1.23;;;;;;;9.85;78.91;100985.03;5418769;26;20014;-66
2024/04/12 03:57:47;;;;;;;1.45;1.05;;;;;;;9.87;79.17;101002.09;5419084;26;20068;-66
2024/04/12 04:00:20;;;;;;;1.05;1.00;;;;;;;9.83;79.22;101004.56;5418580;26;20000;-66
2024/04/12 04:02:51;;;;;;;5.47;1.73;;;;;;;9.78;79.52;101001.91;5418724;26;20010;-66
2024/04/12 04:05:25;;;;;;;2.65;1.65;;;;;;;9.78;79.54;101006.13;5418646;26;19999;-66
2024/04/12 04:07:54;;;;;;;1.52;1.25;;;;;;;9.78;79.65;101009.53;5419198;26;20043;-66
2024/04/12 04:10:25;;;;;;;0.98;0.88;;;;;;;9.71;79.80;101006.81;5418330;26;20400;-66
2024/04/12 04:13:03;;;;;;;0.75;0.75;;;;;;;9.82;79.77;101023.22;5418450;26;20003;-66
2024/04/12 04:15:33;;;;;;;2.63;1.45;;;;;;;9.81;79.88;101022.34;5416698;26;20003;-66
2024/04/12 04:18:10;;;;;;;2.10;1.58;;;;;;;9.79;79.89;101026.56;5418427;26;20077;-66
2024/04/12 04:20:39;;;;;;;1.65;1.27;;;;;;;9.83;80.19;101024.94;5418381;26;20004;-66
2024/04/12 04:23:10;;;;;;;2.60;1.60;;;;;;;9.82;80.09;101023.22;5418319;26;20028;-66
2024/04/12 04:25:38;;;;;;;7.88;3.08;;;;;;;9.81;80.19;101032.53;5418930;26;20011;-66
2024/04/12 04:28:11;;;;;;;2.22;1.70;;;;;;;9.81;80.21;101021.50;5418235;26;20007;-66
2024/04/12 04:30:40;;;;;;;1.85;1.40;;;;;;;9.84;80.32;101026.66;5416880;26;20031;-66
2024/04/12 04:33:12;;;;;;;1.40;1.30;;;;;;;9.85;80.37;101025.84;5418114;26;20023;-66
2024/04/12 04:35:44;;;;;;;1.52;1.38;;;;;;;9.89;80.34;101019.97;5418192;26;20000;-66
2024/04/12 04:38:17;;;;;;;1.92;1.80;;;;;;;9.98;80.53;101022.78;5418184;26;20347;-66
2024/04/12 04:40:45;;;;;;;1.55;1.45;;;;;;;10.02;80.41;101027.97;5417372;26;20008;-66
2024/04/12 04:43:23;;;;;;;1.75;1.40;;;;;;;9.96;80.14;101011.63;5417955;26;20084;-66
2024/04/12 04:45:51;;;;;;;1.20;1.10;;;;;;;10.11;80.28;101032.41;5418274;26;20003;-66
2024/04/12 04:48:22;;;;;;;1.88;1.42;;;;;;;10.16;80.14;101030.84;5417843;26;20036;-66
2024/04/12 04:50:51;;;;;;;1.08;0.85;;;;;;;10.22;79.96;101030.16;5417940;26;20010;-66
2024/04/12 04:53:21;;;;;;;1.20;1.10;;;;;;;10.26;80.47;101030.25;5417545;26;20004;-66
2024/04/12 04:55:52;;;;;;;2.17;1.45;;;;;;;10.35;80.25;101032.13;5418181;26;20519;-66
2024/04/12 04:58:29;;;;;;;9.10;4.53;;;;;;;10.41;80.20;101028.03;5417962;26;20115;-66
2024/04/12 05:00:58;;;;;;;1.70;1.40;;;;;;;10.47;80.28;101033.25;5418035;26;19999;-66
2024/04/12 05:03:28;;;;;;;8.48;2.45;;;;;;;10.57;80.57;101035.19;5417478;26;20022;-66
2024/04/12 05:05:57;;;;;;;1.17;1.08;;;;;;;10.59;80.22;101038.63;5416239;26;20007;-66
2024/04/12 05:08:27;;;;;;;3.03;1.83;;;;;;;10.70;80.11;101033.75;5417483;26;20043;-66
2024/04/12 05:10:56;;;;;;;1.35;1.25;;;;;;;10.84;79.42;101034.00;5417856;26;20010;-66
2024/04/12 05:13:30;;;;;;;1.52;1.42;;;;;;;10.91;79.47;101030.75;5385758;26;20076;-66
2024/04/12 05:15:58;;;;;;;2.00;1.80;;;;;;;11.03;79.17;101030.97;5417325;26;20408;-66
2024/04/12 05:18:28;;;;;;;1.25;1.15;;;;;;;11.16;78.97;101028.69;5417647;26;20011;-66
2024/04/12 05:20:57;;;;;;;2.17;1.85;;;;;;;11.32;78.26;101042.63;5417697;26;20442;-66
2024/04/12 05:23:28;;;;;;;;;;;;;;;11.43;78.28;101036.84;5417900;26;20007;-66
2024/04/12 05:25:56;;;;;;;1.63;1.52;;;;;;;11.59;78.38;101050.75;5417565;26;19925;-67
2024/04/12 05:28:30;;;;;;;0.93;0.93;;;;;;;11.69;77.83;101051.78;5417415;26;20072;-67
2024/04/12 05:30:58;;;;;;;6.18;1.92;;;;;;;11.79;77.30;101046.88;5417166;26;20342;-67
2024/04/12 05:33:29;;;;;;;2.25;1.40;;;;;;;11.85;76.82;101048.69;5417193;26;20078;-67
2024/04/12 05:36:01;;;;;;;0.80;0.80;;;;;;;11.90;77.00;101053.00;5417194;26;20003;-66
2024/04/12 05:38:33;;;;;;;1.57;1.47;;;;;;;12.01;75.88;101053.19;5417167;26;20477;-67
2024/04/12 05:41:04;;;;;;;2.63;2.20;;;;;;;12.13;75.66;101047.38;5416989;26;20303;-66
2024/04/12 05:43:39;;;;;;;2.05;1.80;;;;;;;12.16;74.82;101039.75;5416994;26;20053;-66
2024/04/12 05:46:07;;;;;;;1.75;1.63;;;;;;;12.38;74.08;101052.03;5417157;26;20072;-67
2024/04/12 05:48:40;;;;;;;3.00;1.58;;;;;;;12.47;73.81;101047.03;5416692;26;20011;-66
2024/04/12 05:51:09;;;;;;;1.80;1.70;;;;;;;12.57;73.22;101054.84;5416851;26;20011;-67
2024/04/12 05:53:40;;;;;;;1.40;1.30;;;;;;;12.66;72.76;101056.69;5448480;26;19999;-67
2024/04/12 05:58:56;;;;;;;1.20;1.10;;;;;;;12.83;71.29;101052.63;5420724;26;19996;-66
2024/04/12 06:01:25;;;;;;;6.10;1.75;;;;;;;12.99;70.74;101058.78;5420637;26;19996;-66
2024/04/12 06:03:56;;;;;;;0.85;0.85;;;;;;;13.11;70.45;101062.38;5418487;26;20076;-66
2024/04/12 06:06:24;;;;;;;2.30;1.63;;;;;;;13.17;69.18;101062.44;5420227;26;20083;-65
2024/04/12 06:08:58;;;;;;;1.35;1.20;;;;;;;13.28;69.61;101053.19;5420153;26;20080;-66
2024/04/12 06:11:26;;;;;;;0.77;0.77;;;;;;;13.32;68.98;101057.47;5420423;26;20016;-66
2024/04/12 06:14:01;;;;;;;0.80;0.80;;;;;;;13.43;68.30;101053.34;5418131;26;20022;-66
2024/04/12 06:16:29;;;;;;;1.67;1.58;;;;;;;13.51;68.33;101042.28;5420175;26;20004;-67
2024/04/12 06:19:02;;;;;;;2.45;2.25;;;;;;;13.77;68.14;101054.47;5419643;26;20019;-67
2024/04/12 06:21:30;;;;;;;1.75;1.33;;;;;;;13.96;67.53;101052.94;5420646;26;20418;-67
2024/04/12 06:24:08;;;;;;;1.13;0.93;;;;;;;14.16;66.49;101043.66;5419913;26;20470;-67
2024/04/12 06:26:39;;;;;;;1.80;1.63;;;;;;;14.25;65.65;101043.72;5419901;26;20000;-66
2024/04/12 06:29:16;;;;;;;2.35;1.95;;;;;;;14.37;65.52;101038.66;5420060;26;20072;-67
2024/04/12 06:31:49;;;;;;;2.22;1.48;;;;;;;14.47;64.27;101043.00;5448078;26;20004;-67
2024/04/12 06:34:21;;;;;;;1.10;1.00;;;;;;;14.59;64.10;101030.22;5420111;26;20011;-67
2024/04/12 06:36:56;;;;;;;3.80;2.38;;;;;;;14.74;63.63;101029.44;5418210;26;19999;-67
2024/04/12 06:39:31;;;;;;;0.80;0.80;;;;;;;14.85;62.72;101037.19;5419736;26;20457;-66
2024/04/12 06:42:04;;;;;;;2.58;1.42;;;;;;;14.93;61.95;101038.06;5417990;26;20067;-66
2024/04/12 06:44:37;;;;;;;0.75;0.73;;;;;;;14.90;61.85;101014.94;5419785;26;19999;-65
2024/04/12 06:47:09;;;;;;;0.80;0.70;;;;;;;15.06;61.22;101026.97;5419699;26;20101;-67
2024/04/12 06:49:44;;;;;;;1.05;0.93;;;;;;;15.16;61.17;101023.59;5419636;26;20003;-66
2024/04/12 06:52:20;;;;;;;0.63;0.63;;;;;;;15.28;60.79;101019.28;5419794;26;20054;-67
2024/04/12 06:54:52;;;;;;;0.68;0.68;;;;;;;15.35;61.15;101013.34;5419671;26;20004;-66
2024/04/12 06:57:21;;;;;;;1.20;1.10;;;;;;;15.54;60.18;101028.81;5419849;26;20004;-67
2024/04/12 06:59:58;;;;;;;0.98;0.98;;;;;;;15.67;60.27;101021.09;5419854;26;20010;-66
2024/04/12 07:02:30;;;;;;;2.58;1.85;;;;;;;15.95;60.02;101020.25;5417834;26;20004;-66
2024/04/12 07:05:05;;;;;;;1.25;1.15;;;;;;;16.06;59.06;101018.50;5419041;26;20065;-66
2024/04/12 07:07:33;;;;;;;1.80;0.85;;;;;;;16.20;58.99;101009.88;5419395;26;20505;-66
2024/04/12 07:10:09;;;;;;;1.02;0.60;;;;;;;16.40;58.78;101023.56;5419575;26;19999;-66
2024/04/12 07:12:38;;;;;;;0.98;0.85;;;;;;;16.46;58.46;101018.41;5419256;26;20003;-66
2024/04/12 07:15:12;;;;;;;12.55;1.15;;;;;;;16.52;58.16;101023.56;5419388;26;20334;-66
2024/04/12 07:17:41;;;;;;;2.25;1.58;;;;;;;16.65;58.51;101014.94;5419646;26;20011;-67
2024/04/12 07:20:14;;;;;;;4.90;0.93;;;;;;;16.87;58.20;101021.69;5419101;26;20026;-67
2024/04/12 07:22:42;;;;;;;4.13;1.08;;;;;;;17.09;57.18;101018.13;5419279;26;20075;-67
2024/04/12 07:25:15;;;;;;;4.78;1.75;;;;;;;17.12;56.84;101022.44;5419107;26;20053;-67
2024/04/12 07:27:47;;;;;;;2.08;1.20;;;;;;;17.12;56.88;101020.72;5419169;26;20044;-67
2024/04/12 07:30:23;;;;;;;0.85;0.85;;;;;;;17.28;57.54;101019.75;5419096;26;20004;-67
2024/04/12 07:32:53;;;;;;;0.95;0.70;;;;;;;17.35;56.48;101013.66;5418689;26;20019;-67
2024/04/12 07:35:29;;;;;;;1.88;1.70;;;;;;;17.50;56.22;101019.59;5417171;26;20011;-67
2024/04/12 07:37:59;;;;;;;1.20;1.08;;;;;;;17.63;56.11;101031.56;5418782;26;20395;-66
2024/04/12 07:40:34;;;;;;;1.15;1.05;;;;;;;17.58;55.15;101012.69;5417212;26;20043;-67
2024/04/12 07:43:08;;;;;;;1.05;0.95;;;;;;;17.70;54.54;101030.66;5419218;26;20018;-66
2024/04/12 07:45:43;;;;;;;0.50;0.50;;;;;;;17.84;54.08;101026.22;5418800;26;20011;-66
2024/04/12 07:48:22;;;;;;;0.77;0.77;;;;;;;17.96;53.83;101019.22;5419165;26;20015;-67
2024/04/12 07:51:01;;;;;;;0.70;0.70;;;;;;;18.09;52.85;101027.72;5419048;26;20076;-67
2024/04/12 07:53:34;;;;;;;1.15;0.95;;;;;;;18.21;53.02;101022.41;5418887;26;20068;-67
2024/04/12 07:56:14;;;;;;;1.42;1.33;;;;;;;18.40;52.33;101029.13;5419061;26;20015;-66
2024/04/12 07:59:01;;;;;;;0.70;0.70;;;;;;;18.46;51.97;101034.25;5418981;26;20036;-66
2024/04/12 08:01:37;;;;;;;0.60;0.60;;;;;;;18.55;51.37;101031.56;5419069;26;20450;-66
2024/04/12 08:04:06;;;;;;;0.82;0.82;;;;;;;18.69;51.90;101034.00;5418596;26;20007;-66
2024/04/12 08:06:55;;;;;;;0.98;0.90;;;;;;;18.84;51.61;101031.19;5419085;26;20457;-66
2024/04/12 08:09:34;;;;;;;1.00;0.90;;;;;;;19.05;50.69;101025.72;5418635;26;20003;-67
2024/04/12 08:12:13;;;;;;;0.40;0.40;;;;;;;19.11;49.78;101029.97;5416923;26;20000;-66
2024/04/12 08:14:51;;;;;;;0.60;0.60;;;;;;;19.33;49.83;101026.22;5417882;26;20017;-66
2024/04/12 08:17:39;;;;;;;0.68;0.68;;;;;;;19.11;46.25;101004.09;5418279;26;20462;-66
2024/04/12 08:20:13;;;;;;;0.50;0.50;;;;;;;19.20;45.28;101032.44;5418211;26;20473;-66
2024/04/12 08:22:46;;;;;;;0.50;0.50;;;;;;;19.41;45.42;101029.59;5418948;26;19999;-67
2024/04/12 08:25:18;;;;;;;0.77;0.77;;;;;;;19.37;45.62;101020.13;5416895;26;20000;-67
2024/04/12 08:27:54;;;;;;;2.78;0.95;;;;;;;19.42;45.86;101015.75;5416570;26;20000;-66
2024/04/12 08:30:28;;;;;;;2.38;1.38;;;;;;;19.28;45.44;101020.25;5418711;26;20465;-66
2024/04/12 08:33:02;;;;;;;1.27;0.82;;;;;;;19.38;45.95;101014.94;5418144;26;20004;-67
2024/04/12 08:35:31;;;;;;;0.57;0.57;;;;;;;19.46;45.50;101012.22;5386931;26;20466;-66
2024/04/12 08:38:12;;;;;;;0.60;0.60;;;;;;;19.64;45.20;101014.53;5416415;26;20003;-66
2024/04/12 08:40:44;;;;;;;0.40;0.40;;;;;;;19.82;44.85;101001.25;5418168;26;20450;-67
2024/04/12 08:43:17;;;;;;;0.80;0.80;;;;;;;19.83;44.62;101008.16;5417790;26;20004;-66
2024/04/12 08:45:48;;;;;;;2.42;0.60;;;;;;;20.01;45.26;101007.81;5418041;26;20010;-67
2024/04/12 08:48:23;;;;;;;0.70;0.63;;;;;;;20.16;45.35;101005.81;5418080;26;20458;-67
2024/04/12 08:51:04;;;;;;;0.75;0.68;;;;;;;20.25;45.06;101010.91;5416131;26;20392;-67
2024/04/12 08:53:44;;;;;;;0.50;0.50;;;;;;;20.32;45.12;101002.13;5418116;26;20004;-66
2024/04/12 08:56:17;;;;;;;0.50;0.50;;;;;;;20.32;44.69;101002.97;5417917;26;20003;-67
2024/04/12 08:58:52;;;;;;;1.45;1.35;;;;;;;20.63;45.10;101013.59;5417682;26;20010;-66
2024/04/12 09:01:25;;;;;;;0.45;0.45;;;;;;;20.93;43.70;101014.66;5417802;26;19999;-66
2024/04/12 09:04:14;;;;;;;0.60;0.60;;;;;;;20.88;43.23;101009.56;5417457;26;20011;-67
2024/04/12 09:06:48;;;;;;;0.50;0.50;;;;;;;21.13;43.97;101016.00;5417579;26;20461;-67
2024/04/12 09:09:19;;;;;;;0.75;0.75;;;;;;;21.35;44.01;101006.78;5415934;26;20462;-66
2024/04/12 09:11:48;;;;;;;0.60;0.60;;;;;;;21.09;42.65;101009.13;5417600;26;20011;-66
2024/04/12 09:14:23;;;;;;;0.60;0.60;;;;;;;21.19;43.20;101013.25;5417352;26;20003;-66
2024/04/12 09:17:06;;;;;;;0.68;0.68;;;;;;;21.34;42.69;101010.28;5417438;26;20018;-66
2024/04/12 09:19:39;;;;;;;0.50;0.50;;;;;;;21.37;43.32;101001.56;5417465;26;20004;-67
2024/04/12 09:22:09;;;;;;;0.40;0.40;;;;;;;21.44;42.71;101005.72;5417482;26;20011;-66
2024/04/12 09:24:40;;;;;;;1.20;1.10;;;;;;;21.39;42.00;101007.59;5417575;26;19999;-66
2024/04/12 09:27:12;;;;;;;0.40;0.40;;;;;;;21.33;41.37;101002.56;5417104;26;20003;-66
2024/04/12 09:29:47;;;;;;;0.40;0.40;;;;;;;21.32;40.99;101001.69;5420883;26;20388;-66
2024/04/12 09:35:02;;;;;;;0.38;0.38;;;;;;;21.43;41.15;100995.38;5420565;26;20004;-66
2024/04/12 09:37:43;;;;;;;0.50;0.50;;;;;;;21.52;40.72;100992.56;5420938;26;20008;-68
2024/04/12 09:40:24;;;;;;;0.90;0.65;;;;;;;21.56;40.04;101001.97;5390244;26;20030;-67
2024/04/12 09:45:49;;;;;;;0.65;0.65;;;;;;;21.40;40.10;100998.06;5420491;26;20006;-67
2024/04/12 10:39:33;;;;;;;0.60;0.60;;;;;;;22.76;33.96;100934.53;5418805;26;19999;-67
2024/04/12 10:42:05;;;;;;;0.63;0.63;;;;;;;22.71;34.09;100929.47;5419882;26;20004;-67
2024/04/12 10:44:33;;;;;;;0.50;0.50;;;;;;;22.92;33.63;100923.59;5418553;26;20004;-66
2024/04/12 10:47:04;;;;;;;0.40;0.40;;;;;;;23.11;34.18;100918.66;5419583;26;20007;-67
2024/04/12 10:49:33;;;;;;;0.70;0.70;;;;;;;23.31;33.91;100911.06;5419912;26;20011;-67
2024/04/12 10:52:04;;;;;;;0.50;0.50;;;;;;;23.25;33.33;100906.06;5419386;26;20003;-68
2024/04/12 10:54:37;;;;;;;1.33;0.80;;;;;;;23.40;33.85;100900.34;5419789;26;20461;-66
2024/04/12 10:57:10;;;;;;;0.68;0.68;;;;;;;23.64;34.63;100899.50;5417911;26;20072;-67
2024/04/12 10:59:42;;;;;;;0.52;0.52;;;;;;;23.73;35.21;100899.19;5418040;26;20041;-67
2024/04/12 11:02:13;;;;;;;0.60;0.60;;;;;;;23.66;35.81;100897.69;5419720;26;20010;-67
2024/04/12 11:07:32;;;;;;;2.10;0.98;;;;;;;23.88;35.54;100883.00;5387939;26;20009;-65
2024/04/12 11:10:03;;;;;;;0.68;0.68;;;;;;;23.82;34.85;100888.44;5420101;26;20076;-67
2024/04/12 11:12:40;;;;;;;2.13;1.33;;;;;;;23.83;33.80;100890.13;5417658;26;20007;-67
2024/04/12 11:31:06;;;;;;;0.50;0.50;;;;;;;23.82;35.27;100878.00;5419485;26;20456;-67
2024/04/12 11:31:24;;;;;;;0.60;0.60;;;;;;;23.89;33.14;100874.28;5419288;26;19999;-68
2024/04/12 11:33:55;;;;;;;0.98;0.88;;;;;;;23.80;33.21;100860.72;5418841;26;20024;-67
2024/04/12 11:36:41;;;;;;;1.45;1.02;;;;;;;23.73;33.84;100857.47;5419065;26;20008;-67
2024/04/12 11:39:17;;;;;;;0.50;0.50;;;;;;;23.91;34.43;100851.59;5419249;26;20450;-68
2024/04/12 11:41:50;;;;;;;0.50;0.50;;;;;;;24.34;34.50;100844.78;5419077;26;20007;-67
2024/04/12 11:44:21;;;;;;;0.50;0.50;;;;;;;24.40;34.27;100845.38;5418925;26;20004;-66
2024/04/12 11:46:49;;;;;;;0.40;0.40;;;;;;;24.54;34.28;100831.81;5419052;26;20019;-68
2024/04/12 11:49:25;;;;;;;0.55;0.55;;;;;;;24.36;34.16;100837.72;5418538;26;20050;-67
2024/04/12 11:51:55;;;;;;;0.75;0.75;;;;;;;24.19;34.85;100829.69;5418805;26;20000;-67
2024/04/12 11:54:28;;;;;;;0.50;0.50;;;;;;;24.22;34.62;100846.09;5418711;26;20445;-67
2024/04/12 11:57:01;;;;;;;0.50;0.50;;;;;;;23.97;33.92;100835.69;5418735;26;20469;-67
2024/04/12 11:59:33;;;;;;;0.75;0.70;;;;;;;23.92;35.01;100835.00;5418873;26;20015;-67
2024/04/12 12:02:02;;;;;;;0.70;0.70;;;;;;;24.18;34.94;100833.22;5416716;26;20010;-68
2024/04/12 12:04:34;;;;;;;0.65;0.65;;;;;;;24.20;34.10;100826.19;5418384;26;20015;-67
2024/04/12 12:07:04;;;;;;;0.77;0.77;;;;;;;24.13;33.95;100819.50;5418464;26;19999;-67
2024/04/12 12:09:39;;;;;;;0.55;0.55;;;;;;;24.33;34.57;100809.16;5416775;26;20015;-67
2024/04/12 12:12:10;;;;;;;5.75;0.75;;;;;;;24.37;34.56;100761.13;5418464;26;19999;-67
2024/04/12 12:14:43;;;;;;;0.88;0.88;;;;;;;24.89;34.40;100799.91;5418447;26;20015;-67
2024/04/12 12:17:16;;;;;;;0.40;0.40;;;;;;;25.05;33.90;100800.97;5418573;26;20011;-67
2024/04/12 12:19:50;;;;;;;0.45;0.45;;;;;;;24.86;32.69;100801.81;5416798;26;20028;-67
2024/04/12 12:22:19;;;;;;;0.80;0.80;;;;;;;24.53;33.81;100798.75;5416703;26;20003;-67
2024/04/12 12:24:51;;;;;;;0.60;0.60;;;;;;;24.37;33.67;100792.47;5416977;26;20000;-67
2024/04/12 12:27:23;;;;;;;0.45;0.45;;;;;;;24.37;34.09;100795.94;5418510;26;20015;-67
2024/04/12 12:29:54;;;;;;;3.70;0.93;;;;;;;24.47;34.09;100796.41;5418095;26;20359;-67
2024/04/12 12:32:25;;;;;;;0.40;0.40;;;;;;;24.62;33.95;100798.38;5418130;26;20008;-68
2024/04/12 12:34:57;;;;;;;0.68;0.68;;;;;;;24.71;33.47;100795.44;5418369;26;20461;-67
2024/04/12 12:37:28;;;;;;;0.40;0.40;;;;;;;24.67;33.11;100791.22;5418776;26;19999;-67
2024/04/12 12:40:02;;;;;;;0.57;0.57;;;;;;;24.43;33.68;100792.19;5418291;26;20003;-68
2024/04/12 12:42:37;;;;;;;0.65;0.65;;;;;;;24.41;33.91;100784.44;5416123;26;20039;-67
2024/04/12 12:45:11;;;;;;;2.20;1.10;;;;;;;24.52;34.01;100778.81;5418145;26;19999;-67
2024/04/12 12:47:41;;;;;;;0.45;0.45;;;;;;;24.85;34.04;100784.44;5418066;26;20014;-67
2024/04/12 12:50:19;;;;;;;2.33;1.42;;;;;;;25.15;34.18;100780.50;5417619;26;20079;-67
2024/04/12 12:52:49;;;;;;;1.10;0.70;;;;;;;25.21;33.24;100778.50;5417858;26;20072;-67
2024/04/12 12:55:22;;;;;;;0.40;0.40;;;;;;;25.17;33.23;100756.00;5415741;26;20411;-67
2024/04/12 12:58:09;;;;;;;0.85;0.85;;;;;;;24.98;32.92;100764.72;5417934;26;20014;-67
2024/04/12 13:00:44;;;;;;;0.50;0.50;;;;;;;25.07;33.30;100764.34;5417961;26;20101;-67
2024/04/12 13:03:17;;;;;;;1.83;1.25;;;;;;;25.29;33.25;100760.69;5421013;26;20015;-67
2024/04/12 13:05:49;;;;;;;0.57;0.57;;;;;;;25.43;33.42;100756.66;5421248;26;20036;-67
2024/04/12 13:08:18;;;;;;;0.40;0.40;;;;;;;25.51;32.58;100754.53;5421069;26;20076;-67